Time;durP1;ratioP1;P1;durP2;ratioP2;P2;SDS_P1;SDS_P2;PMS_P1;PMS_P2;Temp;Humidity;BMP_temperature;BMP_pressure;BME280_temperature;BME280_humidity;BME280_pressure;Samples;Min_cycle;Max_cycle;Signal;HPM_P1;HPM_P2
2022/08/20 00:00:13;;;;;;;7.97;5.18;;;19.50;99.90;;;;;;5014086;28;20049;-67
2022/08/20 00:02:49;;;;;;;7.50;4.93;;;19.50;99.90;;;;;;5014639;28;20033;-67
2022/08/20 00:05:21;;;;;;;6.05;4.85;;;19.50;99.90;;;;;;5014796;28;20394;-67
2022/08/20 00:07:46;;;;;;;7.13;5.03;;;19.40;99.90;;;;;;5014543;28;20037;-67
2022/08/20 00:10:12;;;;;;;6.28;4.57;;;19.40;99.90;;;;;;5014743;28;20048;-68
2022/08/20 00:12:43;;;;;;;6.53;5.13;;;19.40;99.90;;;;;;5014124;28;20033;-67
2022/08/20 00:15:11;;;;;;;7.25;4.80;;;19.40;99.90;;;;;;5014030;28;20037;-67
2022/08/20 00:17:37;;;;;;;9.35;4.43;;;19.30;99.90;;;;;;5014481;28;20046;-67
2022/08/20 00:20:10;;;;;;;6.50;4.97;;;19.30;99.90;;;;;;5012681;28;20072;-67
2022/08/20 00:22:38;;;;;;;6.80;4.95;;;19.30;99.90;;;;;;5012499;28;20115;-68
2022/08/20 00:25:06;;;;;;;8.00;5.07;;;19.30;99.90;;;;;;5013880;28;20128;-68
2022/08/20 00:27:32;;;;;;;6.75;5.05;;;19.30;99.90;;;;;;5014259;28;20387;-67
2022/08/20 00:29:57;;;;;;;8.18;5.07;;;19.30;99.90;;;;;;5014011;28;20052;-67
2022/08/20 00:32:23;;;;;;;6.97;5.10;;;19.30;99.90;;;;;;5014175;28;20358;-67
2022/08/20 00:34:49;;;;;;;6.32;5.18;;;19.20;99.90;;;;;;5012457;28;20534;-67
2022/08/20 00:37:15;;;;;;;7.32;5.40;;;19.20;99.90;;;;;;5012716;28;20048;-67
2022/08/20 00:39:41;;;;;;;10.10;5.97;;;19.20;99.90;;;;;;5012885;28;20037;-67
2022/08/20 00:42:07;;;;;;;7.82;5.43;;;19.10;99.90;;;;;;5013171;28;20061;-67
2022/08/20 00:44:33;;;;;;;7.75;5.28;;;19.10;99.90;;;;;;5013677;28;20355;-67
2022/08/20 00:46:59;;;;;;;6.97;5.60;;;19.10;99.90;;;;;;5013569;28;20042;-67
2022/08/20 00:49:30;;;;;;;9.43;5.75;;;19.10;99.90;;;;;;5013747;28;20467;-67
2022/08/20 00:52:05;;;;;;;6.75;5.65;;;19.10;99.90;;;;;;5013454;28;20049;-67
2022/08/20 00:54:37;;;;;;;7.43;5.50;;;19.10;99.90;;;;;;5013413;28;20038;-67
2022/08/20 00:57:33;;;;;;;7.13;5.47;;;19.10;99.90;;;;;;5013594;28;20052;-67
2022/08/20 01:00:01;;;;;;;7.22;5.40;;;19.10;99.90;;;;;;5014331;28;20056;-67
2022/08/20 01:02:29;;;;;;;7.45;5.35;;;19.00;99.90;;;;;;5013812;28;20046;-67
2022/08/20 01:04:55;;;;;;;7.18;5.40;;;19.10;99.90;;;;;;5013454;28;20053;-67
2022/08/20 01:07:33;;;;;;;7.90;5.70;;;19.10;99.90;;;;;;5013885;28;20374;-67
2022/08/20 01:10:08;;;;;;;6.97;5.78;;;19.10;99.90;;;;;;5013192;28;20129;-67
2022/08/20 01:12:34;;;;;;;9.60;5.85;;;19.00;99.90;;;;;;5012837;28;20554;-67
2022/08/20 01:15:02;;;;;;;7.85;5.75;;;19.00;99.90;;;;;;5013339;28;20124;-67
2022/08/20 01:17:31;;;;;;;9.48;6.05;;;19.00;99.90;;;;;;5013218;28;20046;-67
2022/08/20 01:20:37;;;;;;;7.43;5.93;;;18.90;99.90;;;;;;5013003;28;20056;-67
2022/08/20 01:23:33;;;;;;;8.32;5.22;;;18.90;99.90;;;;;;4934031;29;20047;-68
2022/08/20 01:26:16;;;;;;;9.23;5.65;;;18.90;99.90;;;;;;4934194;29;20094;-67
2022/08/20 01:28:53;;;;;;;8.20;5.57;;;18.90;99.90;;;;;;4996950;28;20061;-67
2022/08/20 01:31:23;;;;;;;6.68;5.55;;;18.90;99.90;;;;;;5013164;28;20053;-67
2022/08/20 01:33:50;;;;;;;7.22;5.82;;;18.80;99.90;;;;;;5013034;28;20049;-67
2022/08/20 01:36:20;;;;;;;7.43;5.45;;;18.80;99.90;;;;;;5013127;28;20169;-67
2022/08/20 01:38:46;;;;;;;10.50;5.60;;;18.80;99.90;;;;;;5013192;28;20121;-67
2022/08/20 01:41:30;;;;;;;7.38;5.32;;;18.80;99.90;;;;;;5011861;28;20069;-68
2022/08/20 01:43:56;;;;;;;7.75;5.10;;;18.80;99.90;;;;;;5015608;28;20042;-68
2022/08/20 01:46:29;;;;;;;8.50;5.40;;;18.70;99.90;;;;;;5016708;28;20120;-67
2022/08/20 01:48:57;;;;;;;8.13;5.75;;;18.60;99.90;;;;;;5017436;28;20042;-67
2022/08/20 01:51:27;;;;;;;10.07;5.75;;;18.60;99.90;;;;;;5016827;28;20041;-67
2022/08/20 01:53:54;;;;;;;8.60;6.15;;;18.60;99.90;;;;;;5016677;28;20081;-67
2022/08/20 01:56:25;;;;;;;10.18;5.35;;;18.60;99.90;;;;;;5016481;28;20049;-67
2022/08/20 01:58:53;;;;;;;9.07;5.70;;;18.60;99.90;;;;;;5016561;28;20052;-67
2022/08/20 02:01:39;;;;;;;7.70;5.43;;;18.50;99.90;;;;;;5017116;28;20051;-68
2022/08/20 02:04:08;;;;;;;7.55;5.20;;;18.50;99.90;;;;;;5016996;28;20475;-68
2022/08/20 02:06:43;;;;;;;8.10;5.93;;;18.40;99.90;;;;;;5016059;28;20042;-67
2022/08/20 02:09:10;;;;;;;7.18;5.43;;;18.40;99.90;;;;;;5016448;28;20344;-68
2022/08/20 02:11:37;;;;;;;9.60;5.30;;;18.40;99.90;;;;;;5016064;28;20077;-67
2022/08/20 02:14:07;;;;;;;8.30;5.20;;;18.40;99.90;;;;;;5015780;28;20048;-68
2022/08/20 02:16:37;;;;;;;7.70;5.40;;;18.40;99.90;;;;;;5016133;28;20086;-67
2022/08/20 02:19:10;;;;;;;8.18;5.35;;;18.40;99.90;;;;;;5015347;28;20391;-67
2022/08/20 02:21:39;;;;;;;7.75;5.40;;;18.40;99.90;;;;;;5015889;28;20050;-68
2022/08/20 02:24:05;;;;;;;7.68;4.85;;;18.40;99.90;;;;;;5016583;28;20427;-68
2022/08/20 02:26:30;;;;;;;7.82;5.35;;;18.40;99.90;;;;;;5015976;28;20049;-68
2022/08/20 02:28:58;;;;;;;8.57;5.43;;;18.40;99.90;;;;;;5016505;28;20050;-67
2022/08/20 02:31:24;;;;;;;7.18;4.97;;;18.30;99.90;;;;;;5016410;28;20375;-67
2022/08/20 02:33:50;;;;;;;7.35;5.40;;;18.40;99.90;;;;;;5015844;28;20081;-67
2022/08/20 02:36:18;;;;;;;6.57;4.75;;;18.30;99.90;;;;;;5015837;28;20079;-67
2022/08/20 02:38:45;;;;;;;8.23;5.50;;;18.40;99.90;;;;;;5014463;28;20085;-67
2022/08/20 02:41:11;;;;;;;6.88;5.30;;;18.30;99.90;;;;;;5015644;28;20057;-67
2022/08/20 02:43:37;;;;;;;6.28;5.05;;;18.40;99.90;;;;;;5015813;28;20056;-67
2022/08/20 02:46:05;;;;;;;7.80;4.95;;;18.40;99.90;;;;;;5014432;28;20132;-67
2022/08/20 02:48:32;;;;;;;9.93;5.20;;;18.30;99.90;;;;;;5015467;28;20148;-67
2022/08/20 02:51:01;;;;;;;6.40;4.47;;;18.30;99.90;;;;;;5015435;28;20386;-67
2022/08/20 02:53:35;;;;;;;6.97;4.75;;;18.20;99.90;;;;;;5015950;28;20049;-67
2022/08/20 02:56:01;;;;;;;6.22;4.70;;;18.20;99.90;;;;;;5015446;28;20520;-67
2022/08/20 02:58:27;;;;;;;7.85;5.10;;;18.10;99.90;;;;;;5015364;28;20091;-67
2022/08/20 03:00:55;;;;;;;8.02;5.07;;;18.10;99.90;;;;;;5015286;28;20038;-67
2022/08/20 03:03:21;;;;;;;8.65;5.03;;;18.10;99.90;;;;;;5015230;28;20088;-67
2022/08/20 03:05:51;;;;;;;8.80;5.00;;;18.00;99.90;;;;;;5015281;28;20049;-67
2022/08/20 03:08:17;;;;;;;7.35;5.05;;;18.00;99.90;;;;;;5015697;28;20045;-68
2022/08/20 03:10:45;;;;;;;7.68;4.75;;;17.90;99.90;;;;;;5015884;28;20050;-67
2022/08/20 03:13:12;;;;;;;7.40;4.88;;;17.90;99.90;;;;;;5015338;28;20045;-68
2022/08/20 03:15:46;;;;;;;6.47;4.95;;;17.90;99.90;;;;;;5014719;28;20033;-67
2022/08/20 03:18:13;;;;;;;7.93;4.60;;;17.80;99.90;;;;;;5015073;28;20046;-68
2022/08/20 03:20:39;;;;;;;10.00;5.25;;;17.80;99.90;;;;;;5014410;28;20498;-68
2022/08/20 03:23:05;;;;;;;8.13;4.95;;;17.70;99.90;;;;;;5014414;28;20172;-67
2022/08/20 03:25:31;;;;;;;7.15;4.90;;;17.70;99.90;;;;;;5014915;28;20049;-67
2022/08/20 03:27:56;;;;;;;8.20;4.68;;;17.70;99.90;;;;;;5014757;28;20038;-67
2022/08/20 03:30:24;;;;;;;7.97;5.30;;;17.60;99.90;;;;;;5014734;28;20085;-67
2022/08/20 03:32:50;;;;;;;7.60;4.90;;;17.60;99.90;;;;;;5014784;28;20044;-67
2022/08/20 03:35:18;;;;;;;9.43;4.82;;;17.60;99.90;;;;;;5014743;28;20120;-67
2022/08/20 03:37:44;;;;;;;7.10;4.78;;;17.50;99.90;;;;;;5014652;28;20049;-67
2022/08/20 03:40:16;;;;;;;7.63;4.57;;;17.50;99.90;;;;;;5015321;28;20347;-67
2022/08/20 03:42:42;;;;;;;6.28;4.68;;;17.50;99.90;;;;;;5014539;28;20038;-67
2022/08/20 03:45:10;;;;;;;5.13;4.28;;;17.40;99.90;;;;;;5014494;28;20095;-67
2022/08/20 03:47:37;;;;;;;8.57;4.70;;;17.40;99.90;;;;;;5014456;28;20044;-67
2022/08/20 03:50:05;;;;;;;7.97;4.30;;;17.30;99.90;;;;;;5014402;28;20462;-67
2022/08/20 03:52:31;;;;;;;9.95;4.50;;;17.30;99.90;;;;;;5014340;28;20037;-67
2022/08/20 03:54:56;;;;;;;7.45;4.43;;;17.30;99.90;;;;;;5014856;28;20052;-67
2022/08/20 03:57:23;;;;;;;8.02;5.22;;;17.20;99.90;;;;;;5014203;28;20390;-67
2022/08/20 03:59:50;;;;;;;6.68;4.38;;;17.20;99.90;;;;;;5013490;28;20042;-67
2022/08/20 04:02:16;;;;;;;6.45;4.55;;;17.20;99.90;;;;;;5014190;28;20041;-67
2022/08/20 04:04:42;;;;;;;7.28;4.68;;;17.30;99.90;;;;;;5014125;28;20042;-67
2022/08/20 04:07:10;;;;;;;8.55;4.18;;;17.20;99.90;;;;;;5012572;28;20471;-67
2022/08/20 04:09:38;;;;;;;6.63;4.15;;;17.20;99.90;;;;;;5014127;28;20056;-67
2022/08/20 04:12:05;;;;;;;7.13;4.05;;;17.20;99.90;;;;;;5014334;28;20100;-67
2022/08/20 04:14:30;;;;;;;5.18;3.92;;;17.20;99.90;;;;;;5014049;28;20111;-68
2022/08/20 04:16:56;;;;;;;6.93;3.72;;;17.20;99.90;;;;;;5014002;28;20038;-67
2022/08/20 04:19:22;;;;;;;6.22;3.97;;;17.20;99.90;;;;;;5013920;28;20103;-67
2022/08/20 04:21:48;;;;;;;7.25;3.83;;;17.10;99.90;;;;;;5013555;28;20137;-68
2022/08/20 04:24:14;;;;;;;6.28;3.78;;;17.10;99.90;;;;;;5013816;28;20041;-67
2022/08/20 04:26:41;;;;;;;6.95;3.70;;;17.10;99.90;;;;;;5013492;28;20091;-68
2022/08/20 04:29:07;;;;;;;5.10;3.80;;;17.10;99.90;;;;;;5013409;28;20041;-67
2022/08/20 04:31:33;;;;;;;5.55;3.70;;;17.00;99.90;;;;;;5014045;28;20415;-67
2022/08/20 04:34:06;;;;;;;5.43;3.20;;;17.00;99.90;;;;;;5013390;28;20048;-67
2022/08/20 04:36:33;;;;;;;6.45;3.55;;;17.00;99.90;;;;;;5014018;28;20191;-67
2022/08/20 04:38:59;;;;;;;6.15;3.50;;;17.00;99.90;;;;;;5013665;28;20057;-67
2022/08/20 04:41:26;;;;;;;6.07;3.40;;;17.00;99.90;;;;;;5013386;28;20057;-67
2022/08/20 04:43:53;;;;;;;7.63;3.30;;;17.10;99.90;;;;;;5013417;28;20045;-67
2022/08/20 04:46:19;;;;;;;5.47;3.50;;;17.10;99.90;;;;;;5013583;28;20124;-67
2022/08/20 04:48:44;;;;;;;4.30;3.20;;;17.10;99.90;;;;;;5014242;28;20133;-67
2022/08/20 04:51:13;;;;;;;5.35;3.13;;;17.10;99.90;;;;;;5013421;28;20034;-67
2022/08/20 04:53:40;;;;;;;6.90;3.42;;;17.10;99.90;;;;;;5014042;28;20124;-67
2022/08/20 04:56:06;;;;;;;5.78;3.70;;;17.10;99.90;;;;;;5013511;28;20042;-67
2022/08/20 04:58:35;;;;;;;7.97;4.07;;;17.10;99.90;;;;;;5014086;28;20056;-67
2022/08/20 05:01:06;;;;;;;7.13;3.75;;;17.10;99.90;;;;;;5013444;28;20048;-68
2022/08/20 05:03:32;;;;;;;6.03;3.40;;;17.10;99.90;;;;;;5013568;28;20105;-67
2022/08/20 05:06:00;;;;;;;6.70;3.13;;;17.10;99.90;;;;;;5013389;28;20125;-67
2022/08/20 05:08:26;;;;;;;6.38;3.05;;;17.10;99.90;;;;;;5013338;28;20058;-67
2022/08/20 05:10:53;;;;;;;7.43;3.42;;;17.10;99.90;;;;;;5013454;28;20038;-67
2022/08/20 05:13:20;;;;;;;7.53;3.88;;;17.10;99.90;;;;;;5013409;28;20042;-68
2022/08/20 05:15:47;;;;;;;5.13;3.20;;;17.10;99.90;;;;;;5013836;28;20343;-67
2022/08/20 05:18:15;;;;;;;5.65;3.30;;;17.10;99.90;;;;;;5014902;28;20418;-67
2022/08/20 05:20:41;;;;;;;5.10;3.10;;;17.10;99.90;;;;;;5016800;28;20133;-67
2022/08/20 05:23:10;;;;;;;5.43;3.15;;;17.10;99.90;;;;;;5016825;28;20041;-67
2022/08/20 05:25:38;;;;;;;4.68;2.90;;;17.10;99.90;;;;;;5016207;28;20041;-67
2022/08/20 05:28:11;;;;;;;4.72;3.20;;;17.10;99.90;;;;;;5017084;28;20041;-67
2022/08/20 05:30:41;;;;;;;5.20;3.10;;;17.00;99.90;;;;;;5017021;28;20450;-67
2022/08/20 05:33:08;;;;;;;5.78;2.90;;;17.00;99.90;;;;;;5017263;28;20045;-67
2022/08/20 05:35:37;;;;;;;6.30;2.83;;;17.00;99.90;;;;;;5017015;28;20042;-67
2022/08/20 05:38:04;;;;;;;5.40;3.30;;;17.00;99.90;;;;;;5016846;28;20229;-67
2022/08/20 05:40:31;;;;;;;6.80;3.17;;;16.90;99.90;;;;;;5015682;28;20049;-67
2022/08/20 05:42:56;;;;;;;4.85;2.88;;;17.00;99.90;;;;;;5016880;28;20454;-67
2022/08/20 05:45:22;;;;;;;7.00;3.20;;;17.00;99.90;;;;;;5017286;28;20038;-67
2022/08/20 05:47:48;;;;;;;5.50;2.60;;;17.00;99.90;;;;;;5016728;28;20050;-67
2022/08/20 05:50:16;;;;;;;5.68;2.58;;;16.90;99.90;;;;;;5016633;28;20120;-68
2022/08/20 05:52:42;;;;;;;4.93;2.90;;;17.00;99.90;;;;;;5017368;28;20113;-67
2022/08/20 05:55:12;;;;;;;5.20;2.90;;;17.00;99.90;;;;;;5016630;28;20052;-68
2022/08/20 05:57:38;;;;;;;4.82;2.70;;;17.00;99.90;;;;;;5016513;28;20046;-68
2022/08/20 06:00:08;;;;;;;4.10;2.50;;;17.00;99.90;;;;;;5016447;28;20116;-68
2022/08/20 06:05:18;;;;;;;3.67;2.67;;;17.10;99.90;;;;;;5016322;28;20046;-68
2022/08/20 06:07:45;;;;;;;5.93;2.97;;;17.20;99.90;;;;;;5016277;28;20046;-67
2022/08/20 06:10:11;;;;;;;4.75;2.80;;;17.20;99.90;;;;;;5017098;28;20367;-68
2022/08/20 06:12:37;;;;;;;5.88;2.83;;;17.20;99.90;;;;;;5016772;28;20051;-68
2022/08/20 06:15:05;;;;;;;4.25;2.47;;;17.20;99.90;;;;;;5016161;28;20042;-68
2022/08/20 06:17:32;;;;;;;5.57;2.53;;;17.20;99.90;;;;;;5016611;28;20120;-68
2022/08/20 06:20:05;;;;;;;7.03;3.00;;;17.20;99.90;;;;;;5015568;28;20045;-68
2022/08/20 06:22:31;;;;;;;5.28;2.70;;;17.20;99.90;;;;;;5015664;28;20474;-68
2022/08/20 06:24:57;;;;;;;5.03;2.45;;;17.30;99.90;;;;;;5016006;28;20056;-68
2022/08/20 06:27:23;;;;;;;3.60;2.22;;;17.30;99.90;;;;;;5015926;28;20503;-68
2022/08/20 06:29:49;;;;;;;5.25;2.60;;;17.40;99.90;;;;;;5015896;28;20048;-68
2022/08/20 06:32:15;;;;;;;3.90;2.08;;;17.50;99.90;;;;;;5015801;28;20120;-68
2022/08/20 06:34:41;;;;;;;5.13;2.30;;;17.60;99.90;;;;;;5016276;28;20159;-68
2022/08/20 06:37:15;;;;;;;4.53;2.10;;;17.70;99.90;;;;;;5015807;28;20054;-68
2022/08/20 06:39:41;;;;;;;4.65;2.05;;;17.90;99.90;;;;;;5015774;28;20045;-68
2022/08/20 06:42:07;;;;;;;4.43;1.95;;;18.00;99.90;;;;;;5015775;28;20479;-69
2022/08/20 06:44:33;;;;;;;4.68;2.17;;;18.10;99.90;;;;;;5015692;28;20049;-65
2022/08/20 06:47:03;;;;;;;4.32;1.90;;;18.20;99.90;;;;;;5015543;28;20045;-64
2022/08/20 06:49:30;;;;;;;2.40;1.60;;;18.20;99.90;;;;;;5016096;28;20386;-65
2022/08/20 06:51:56;;;;;;;3.63;1.48;;;18.30;99.90;;;;;;5015465;28;20046;-64
2022/08/20 06:54:21;;;;;;;4.95;1.70;;;18.30;99.90;;;;;;5015994;28;20053;-64
2022/08/20 06:56:47;;;;;;;5.15;1.88;;;18.30;99.90;;;;;;5014389;28;20048;-64
2022/08/20 06:59:13;;;;;;;6.40;1.67;;;18.20;99.90;;;;;;5015924;28;20045;-64
2022/08/20 07:01:39;;;;;;;3.30;1.63;;;18.20;99.90;;;;;;5015196;28;20046;-65
2022/08/20 07:04:07;;;;;;;4.68;1.77;;;18.20;99.90;;;;;;5015807;28;20042;-64
2022/08/20 07:06:33;;;;;;;4.55;1.77;;;18.20;99.90;;;;;;5015277;28;20054;-64
2022/08/20 07:08:59;;;;;;;4.63;1.67;;;18.20;99.90;;;;;;5015698;28;20125;-64
2022/08/20 07:11:25;;;;;;;4.28;1.65;;;18.20;99.90;;;;;;5015132;28;20164;-64
2022/08/20 07:13:51;;;;;;;4.93;1.73;;;18.20;99.90;;;;;;5014180;28;20124;-65
2022/08/20 07:16:17;;;;;;;3.33;1.50;;;18.20;99.90;;;;;;5014785;28;20463;-64
2022/08/20 07:18:43;;;;;;;3.10;1.52;;;18.20;99.90;;;;;;5015054;28;20049;-64
2022/08/20 07:21:10;;;;;;;3.75;1.58;;;18.20;99.90;;;;;;5014458;28;20049;-64
2022/08/20 07:23:36;;;;;;;4.72;1.80;;;18.30;99.90;;;;;;5014888;28;20049;-64
2022/08/20 07:26:02;;;;;;;4.60;1.30;;;18.40;99.90;;;;;;5013794;28;20379;-64
2022/08/20 07:28:30;;;;;;;5.35;1.77;;;18.60;99.90;;;;;;5015265;28;20065;-64
2022/08/20 07:33:54;;;;;;;3.08;1.00;;;18.80;99.90;;;;;;4981415;28;20058;-64
2022/08/20 07:36:20;;;;;;;5.05;1.50;;;18.80;99.90;;;;;;5014819;28;20048;-64
2022/08/20 07:38:49;;;;;;;5.18;1.40;;;18.80;99.90;;;;;;5015446;28;20475;-65
2022/08/20 07:41:15;;;;;;;5.22;1.55;;;18.70;99.90;;;;;;5013646;28;20375;-64
2022/08/20 07:43:44;;;;;;;3.28;1.20;;;18.70;99.90;;;;;;5014549;28;20049;-64
2022/08/20 07:46:11;;;;;;;2.85;1.15;;;18.60;99.90;;;;;;5014980;28;20050;-64
2022/08/20 07:48:40;;;;;;;4.45;1.30;;;18.50;99.90;;;;;;5013468;28;20060;-64
2022/08/20 07:51:09;;;;;;;4.05;1.20;;;18.50;99.90;;;;;;5013229;28;20049;-64
2022/08/20 07:53:37;;;;;;;3.95;1.38;;;18.60;99.90;;;;;;5014729;28;20383;-64
2022/08/20 07:56:06;;;;;;;6.78;1.10;;;18.60;99.90;;;;;;5014233;28;20045;-64
2022/08/20 07:58:34;;;;;;;3.97;1.20;;;18.70;99.90;;;;;;5013794;28;20053;-65
2022/08/20 08:01:00;;;;;;;3.22;1.10;;;18.80;99.90;;;;;;5013744;28;20053;-65
2022/08/20 08:03:28;;;;;;;5.53;1.10;;;18.90;99.90;;;;;;5012388;28;20041;-66
2022/08/20 08:05:55;;;;;;;5.13;1.10;;;19.00;99.90;;;;;;5014318;28;20402;-64
2022/08/20 08:08:24;;;;;;;4.50;1.27;;;19.10;99.90;;;;;;5014017;28;20046;-65
2022/08/20 08:10:54;;;;;;;4.20;1.35;;;19.20;99.90;;;;;;5012901;28;20053;-65
2022/08/20 08:13:25;;;;;;;2.65;0.93;;;19.20;99.90;;;;;;5013870;28;20046;-65
2022/08/20 08:15:56;;;;;;;3.58;1.30;;;19.20;99.90;;;;;;5014006;28;20054;-65
2022/08/20 08:18:26;;;;;;;2.83;0.93;;;19.20;99.90;;;;;;5014475;28;20050;-65
2022/08/20 08:20:53;;;;;;;3.78;1.02;;;19.30;99.90;;;;;;5014068;28;20062;-66
2022/08/20 08:23:21;;;;;;;2.92;1.10;;;19.40;99.90;;;;;;5013622;28;20057;-65
2022/08/20 08:25:48;;;;;;;4.28;1.50;;;19.40;99.90;;;;;;5013741;28;20100;-65
2022/08/20 08:28:14;;;;;;;3.50;1.00;;;19.40;99.90;;;;;;5013631;28;20081;-65
2022/08/20 08:30:41;;;;;;;2.70;0.90;;;19.40;99.90;;;;;;5012541;28;20104;-66
2022/08/20 08:33:32;;;;;;;3.67;0.80;;;19.50;99.90;;;;;;5013533;28;20046;-65
2022/08/20 08:36:04;;;;;;;2.47;1.00;;;19.70;99.90;;;;;;5013896;28;20137;-66
2022/08/20 08:38:33;;;;;;;5.00;1.10;;;19.90;99.90;;;;;;5013510;28;20049;-66
2022/08/20 08:41:22;;;;;;;2.55;0.90;;;20.00;99.90;;;;;;5013669;28;20046;-65
2022/08/20 08:43:52;;;;;;;4.22;1.20;;;20.10;99.90;;;;;;5014208;28;20057;-66
2022/08/20 08:46:23;;;;;;;3.97;1.00;;;20.00;99.90;;;;;;5013535;28;20045;-64
2022/08/20 08:48:52;;;;;;;3.47;1.20;;;20.00;99.90;;;;;;5012603;28;20084;-65
2022/08/20 08:51:28;;;;;;;3.55;1.00;;;20.00;99.90;;;;;;5013262;28;20038;-64
2022/08/20 08:53:55;;;;;;;2.05;0.90;;;20.20;99.90;;;;;;5013457;28;20053;-65
2022/08/20 08:56:27;;;;;;;2.38;0.85;;;20.20;99.90;;;;;;5013242;28;20050;-65
2022/08/20 08:58:54;;;;;;;3.15;0.80;;;20.40;99.90;;;;;;5013697;28;20050;-65
2022/08/20 09:01:22;;;;;;;4.13;1.13;;;20.40;99.90;;;;;;5013020;28;20052;-68
2022/08/20 09:03:50;;;;;;;4.72;1.05;;;20.50;99.90;;;;;;5013265;28;20056;-65
2022/08/20 09:06:22;;;;;;;2.88;1.00;;;20.50;99.90;;;;;;5013280;28;20085;-65
2022/08/20 09:08:53;;;;;;;4.25;0.70;;;20.50;99.90;;;;;;5014021;28;20050;-65
2022/08/20 09:11:21;;;;;;;5.38;0.90;;;20.60;99.90;;;;;;5014105;28;20375;-65
2022/08/20 09:13:47;;;;;;;3.55;0.80;;;20.70;99.90;;;;;;5013288;28;20152;-65
2022/08/20 09:16:13;;;;;;;6.18;1.17;;;20.70;99.90;;;;;;5013189;28;20049;-65
2022/08/20 09:18:39;;;;;;;2.67;0.70;;;20.80;99.90;;;;;;5013250;28;20046;-65
2022/08/20 09:21:05;;;;;;;1.70;0.77;;;20.80;99.90;;;;;;5013182;28;20065;-65
2022/08/20 09:23:32;;;;;;;2.15;0.52;;;20.90;99.90;;;;;;5013097;28;20058;-65
2022/08/20 09:25:58;;;;;;;2.78;0.90;;;20.90;99.90;;;;;;5013148;28;20049;-65
2022/08/20 09:28:24;;;;;;;3.13;0.75;;;20.90;99.90;;;;;;5012912;28;20053;-65
2022/08/20 09:30:49;;;;;;;3.13;0.70;;;21.00;99.90;;;;;;5013084;28;20085;-65
2022/08/20 09:33:15;;;;;;;5.57;1.02;;;21.00;99.90;;;;;;5012749;28;20077;-65
2022/08/20 09:35:43;;;;;;;3.15;0.70;;;21.10;99.90;;;;;;5014008;28;20081;-65
2022/08/20 09:38:09;;;;;;;2.72;0.70;;;21.10;99.90;;;;;;5013007;28;20046;-65
2022/08/20 09:40:34;;;;;;;2.35;0.70;;;21.10;99.90;;;;;;5012538;28;20140;-67
2022/08/20 09:43:02;;;;;;;2.00;0.60;;;21.10;99.90;;;;;;5012978;28;20046;-66
2022/08/20 09:45:28;;;;;;;1.70;0.68;;;21.10;99.90;;;;;;5012176;28;20060;-66
2022/08/20 09:47:53;;;;;;;4.18;0.63;;;21.10;99.90;;;;;;5012820;28;20049;-66
2022/08/20 09:50:19;;;;;;;1.60;0.55;;;21.20;99.90;;;;;;5013092;28;20052;-65
2022/08/20 09:52:47;;;;;;;3.05;0.82;;;21.10;99.90;;;;;;5012828;28;20510;-65
2022/08/20 09:55:37;;;;;;;1.88;0.70;;;21.10;99.90;;;;;;5013127;28;20395;-65
2022/08/20 09:58:10;;;;;;;2.45;0.77;;;21.20;99.90;;;;;;5012791;28;20053;-65
2022/08/20 10:00:35;;;;;;;2.85;0.80;;;21.20;99.90;;;;;;5012839;28;20172;-65
2022/08/20 10:03:02;;;;;;;1.67;0.63;;;21.20;99.90;;;;;;5012362;28;20061;-66
2022/08/20 10:05:28;;;;;;;2.80;0.73;;;21.30;99.90;;;;;;5015959;28;20502;-66
2022/08/20 10:07:54;;;;;;;2.90;0.70;;;21.40;99.90;;;;;;5016138;28;20046;-66
2022/08/20 10:10:20;;;;;;;3.28;0.95;;;21.50;99.90;;;;;;5015909;28;20100;-66
2022/08/20 10:12:45;;;;;;;3.38;0.70;;;21.50;99.90;;;;;;5016208;28;20037;-66
2022/08/20 10:15:11;;;;;;;1.63;0.75;;;21.50;99.90;;;;;;5016049;28;20510;-65
2022/08/20 10:17:42;;;;;;;3.00;0.80;;;21.50;99.90;;;;;;5015963;28;20454;-66
2022/08/20 10:20:10;;;;;;;4.95;1.00;;;21.50;99.90;;;;;;5014471;28;20057;-66
2022/08/20 10:22:35;;;;;;;3.17;0.82;;;21.60;99.90;;;;;;5016328;28;20054;-66
2022/08/20 10:25:01;;;;;;;2.33;0.70;;;21.60;99.90;;;;;;5016293;28;20417;-65
2022/08/20 10:27:27;;;;;;;1.48;0.57;;;21.60;99.90;;;;;;5015776;28;20050;-66
2022/08/20 10:29:52;;;;;;;2.40;0.60;;;21.60;99.90;;;;;;5015820;28;20049;-65
2022/08/20 10:32:18;;;;;;;3.55;0.73;;;21.60;99.90;;;;;;5014645;28;20115;-66
2022/08/20 10:34:45;;;;;;;2.15;0.80;;;21.50;99.90;;;;;;5015593;28;20050;-66
2022/08/20 10:37:19;;;;;;;3.08;0.90;;;21.30;99.90;;;;;;5015372;28;20506;-66
2022/08/20 10:39:46;;;;;;;2.88;0.75;;;21.20;99.90;;;;;;5015657;28;20132;-65
2022/08/20 10:42:12;;;;;;;3.95;0.82;;;21.10;99.90;;;;;;5016355;28;20077;-65
2022/08/20 10:44:38;;;;;;;2.55;0.80;;;21.10;99.90;;;;;;5015674;28;20050;-65
2022/08/20 10:47:20;;;;;;;2.25;0.55;;;21.10;99.90;;;;;;5015633;28;20050;-66
2022/08/20 10:49:47;;;;;;;3.05;0.70;;;21.00;99.90;;;;;;5015199;28;20494;-65
2022/08/20 10:52:13;;;;;;;3.80;0.98;;;21.10;99.90;;;;;;5015164;28;20053;-66
2022/08/20 10:54:40;;;;;;;2.33;0.70;;;21.20;99.90;;;;;;5015477;28;20054;-66
2022/08/20 10:57:17;;;;;;;2.80;0.70;;;21.30;99.90;;;;;;5015393;28;20062;-66
2022/08/20 10:59:46;;;;;;;1.77;0.70;;;21.50;99.90;;;;;;5015343;28;20054;-65
2022/08/20 11:02:12;;;;;;;3.88;0.75;;;21.60;99.90;;;;;;5015105;28;20487;-65
2022/08/20 11:04:39;;;;;;;3.33;0.90;;;21.80;99.90;;;;;;5015520;28;20050;-65
2022/08/20 11:07:22;;;;;;;3.05;0.80;;;21.90;99.90;;;;;;5015120;28;20061;-65
2022/08/20 11:09:49;;;;;;;3.35;0.98;;;21.80;99.90;;;;;;5015692;28;20453;-65
2022/08/20 11:12:17;;;;;;;2.65;0.70;;;21.60;99.90;;;;;;5015344;28;20041;-65
2022/08/20 11:14:42;;;;;;;2.47;0.70;;;21.60;99.90;;;;;;5013766;28;20501;-65
2022/08/20 11:17:08;;;;;;;2.83;0.90;;;21.50;99.90;;;;;;5013901;28;20133;-66
2022/08/20 11:19:42;;;;;;;2.75;0.70;;;21.50;99.90;;;;;;5014498;28;20045;-65
2022/08/20 11:22:09;;;;;;;3.63;0.75;;;21.60;99.90;;;;;;5013618;28;20048;-65
2022/08/20 11:24:35;;;;;;;2.25;0.77;;;21.80;99.90;;;;;;5014776;28;20410;-65
2022/08/20 11:27:01;;;;;;;2.92;0.75;;;22.00;99.90;;;;;;5015534;28;20049;-66
2022/08/20 11:29:27;;;;;;;3.25;0.75;;;22.20;99.90;;;;;;5014769;28;20050;-65
2022/08/20 11:31:53;;;;;;;1.80;0.73;;;22.30;99.90;;;;;;5014617;28;20052;-65
2022/08/20 11:34:18;;;;;;;3.33;1.02;;;22.50;99.90;;;;;;5014628;28;20111;-65
2022/08/20 11:36:46;;;;;;;3.20;1.08;;;22.60;99.90;;;;;;5014257;28;20065;-65
2022/08/20 11:39:12;;;;;;;2.25;0.80;;;22.70;99.90;;;;;;5014532;28;20403;-65
2022/08/20 11:41:38;;;;;;;1.63;0.80;;;22.60;99.90;;;;;;5014398;28;20038;-65
2022/08/20 11:44:04;;;;;;;2.75;0.63;;;22.40;99.90;;;;;;5014406;28;20483;-65
2022/08/20 11:46:31;;;;;;;4.90;0.90;;;22.20;99.90;;;;;;5014374;28;20049;-65
2022/08/20 11:48:57;;;;;;;2.70;0.77;;;22.10;99.90;;;;;;5014123;28;20507;-65
2022/08/20 11:51:23;;;;;;;2.30;0.70;;;22.00;99.90;;;;;;5014018;28;20056;-65
2022/08/20 11:53:49;;;;;;;2.65;0.80;;;22.00;99.90;;;;;;5014112;28;20050;-65
2022/08/20 11:56:15;;;;;;;2.78;0.82;;;22.00;99.90;;;;;;5014865;28;20048;-65
2022/08/20 11:58:41;;;;;;;3.17;0.90;;;22.10;99.90;;;;;;5013928;28;20426;-65
2022/08/20 12:01:07;;;;;;;4.93;1.13;;;22.30;99.90;;;;;;5014047;28;20060;-65
2022/08/20 12:03:33;;;;;;;2.03;0.90;;;22.40;99.90;;;;;;5014493;28;20088;-66
2022/08/20 12:05:59;;;;;;;4.43;0.90;;;22.40;99.90;;;;;;5013774;28;20085;-66
2022/08/20 12:08:24;;;;;;;3.15;0.90;;;22.30;99.90;;;;;;5012875;28;20038;-66
2022/08/20 12:10:50;;;;;;;2.90;0.70;;;22.30;99.90;;;;;;5013912;28;20048;-66
2022/08/20 12:13:16;;;;;;;3.95;0.70;;;22.10;99.90;;;;;;5013849;28;20442;-65
2022/08/20 12:15:42;;;;;;;2.67;0.70;;;22.10;99.90;;;;;;5013359;28;20050;-65
2022/08/20 12:18:09;;;;;;;1.90;0.75;;;22.20;99.90;;;;;;5013786;28;20480;-67
2022/08/20 12:20:36;;;;;;;3.08;0.70;;;22.40;99.90;;;;;;5013608;28;20058;-68
2022/08/20 12:23:02;;;;;;;2.75;0.65;;;22.50;99.90;;;;;;5013658;28;20542;-67
2022/08/20 12:25:28;;;;;;;2.45;0.75;;;22.60;99.90;;;;;;5013738;28;20045;-66
2022/08/20 12:27:53;;;;;;;1.67;0.75;;;22.70;99.90;;;;;;5013170;28;20128;-66
2022/08/20 12:30:21;;;;;;;2.40;0.90;;;22.80;99.90;;;;;;5013659;28;20099;-66
2022/08/20 12:32:47;;;;;;;3.88;1.23;;;22.90;99.90;;;;;;5013693;28;20042;-66
2022/08/20 12:35:15;;;;;;;1.73;0.65;;;23.00;99.90;;;;;;5013293;28;20057;-67
2022/08/20 12:37:41;;;;;;;3.15;0.90;;;22.90;99.90;;;;;;5013627;28;20054;-66
2022/08/20 12:40:13;;;;;;;2.10;0.70;;;22.70;99.90;;;;;;5013538;28;20080;-66
2022/08/20 12:42:39;;;;;;;2.97;0.90;;;22.60;99.90;;;;;;5013887;28;20140;-66
2022/08/20 12:45:06;;;;;;;3.13;0.80;;;22.60;99.90;;;;;;5014225;28;20112;-66
2022/08/20 12:47:35;;;;;;;3.30;1.38;;;22.70;99.90;;;;;;5013514;28;20061;-66
2022/08/20 12:50:16;;;;;;;3.63;1.42;;;22.80;99.90;;;;;;5013416;28;20132;-66
2022/08/20 12:52:43;;;;;;;5.00;1.17;;;22.80;99.90;;;;;;5013780;28;20096;-65
2022/08/20 12:55:12;;;;;;;2.35;1.02;;;22.80;99.90;;;;;;5013604;28;20133;-65